Sunday, July 22, 2018, 12:57 PM GMT
Back to Local

CWAF, Ile Rouge Meteorological Aeronautical Presentation System

Location: , , Canada Lat: 48.083
Local Time: 12:57 PM GMT (12:57 GMT) Lon: -69.55
Time Zone: GMT Elev: 16 ft

Show me the last for .
Show Coded

Time T Td Feel RH Dir Speed Gust Alt SLP Vis Weather Sky Remarks
2018-07-22 12:00 54 49 - 83 - Calm - - - 0 None
2018-07-22 11:00 54 52 - 92 - Calm - - - 0 None
2018-07-22 10:00 51 50 - 96 - Calm - - - 0 None
2018-07-22 09:00 53 52 - 96 - Calm - - - 0 None
2018-07-22 08:00 53 51 - 96 - Calm - - - 0 None
2018-07-22 07:00 52 50 - 94 - Calm - - - 0 None
2018-07-22 06:00 52 50 - 94 - Calm - - - 0 None
2018-07-22 05:00 48 46 - 93 - Calm - - - 0 None
2018-07-22 04:00 52 50 - 91 - Calm - - - 0 None
2018-07-22 03:00 53 50 - 91 - Calm - - - 0 None
2018-07-22 02:00 51 48 - 91 - Calm - - - 0 None
2018-07-22 01:00 53 49 - 86 - Calm - - - 0 None
2018-07-22 00:00 53 49 - 84 - Calm - - - 0 None
2018-07-21 23:00 57 49 - 74 - Calm - - - 0 None
2018-07-21 22:00 57 51 - 80 - Calm - - - 0 None
2018-07-21 21:00 58 51 - 77 - Calm - - - 0 None
2018-07-21 20:00 58 51 - 75 - Calm - - - 0 None
2018-07-21 19:00 56 49 - 78 - Calm - - - 0 None
2018-07-21 18:00 60 51 - 74 - Calm - - - 0 None
2018-07-21 17:00 61 52 - 72 - Calm - - - 0 None
2018-07-21 16:00 60 53 - 76 - Calm - - - 0 None
2018-07-21 15:00 58 51 - 76 - Calm - - - 0 None
2018-07-21 14:00 60 53 - 76 - Calm - - - 0 None
2018-07-21 13:00 64 54 - 70 210° 1 - - - 0 None

Support USWX by starting your Amazon purchase here.